sensor_id;sensor_type;location;lat;lon;timestamp;P1;durP1;ratioP1;P2;durP2;ratioP2
46845;SDS011;33947;46.804;134.252;2023-02-18T00:02:36;86.10;;;33.42;;
46845;SDS011;33947;46.804;134.252;2023-02-18T00:05:40;126.22;;;44.33;;
46845;SDS011;33947;46.804;134.252;2023-02-18T00:08:45;73.82;;;32.05;;
46845;SDS011;33947;46.804;134.252;2023-02-18T00:14:54;134.82;;;50.95;;
46845;SDS011;33947;46.804;134.252;2023-02-18T00:17:58;55.08;;;24.73;;
46845;SDS011;33947;46.804;134.252;2023-02-18T00:21:03;63.08;;;28.38;;
46845;SDS011;33947;46.804;134.252;2023-02-18T00:24:10;84.20;;;37.47;;
46845;SDS011;33947;46.804;134.252;2023-02-18T00:27:19;49.10;;;24.05;;
46845;SDS011;33947;46.804;134.252;2023-02-18T00:30:24;51.78;;;23.70;;
46845;SDS011;33947;46.804;134.252;2023-02-18T00:33:30;49.42;;;22.67;;
46845;SDS011;33947;46.804;134.252;2023-02-18T00:36:38;48.17;;;20.15;;
46845;SDS011;33947;46.804;134.252;2023-02-18T00:39:42;44.92;;;20.90;;
46845;SDS011;33947;46.804;134.252;2023-02-18T00:42:47;42.08;;;18.83;;
46845;SDS011;33947;46.804;134.252;2023-02-18T00:45:52;40.13;;;19.33;;
46845;SDS011;33947;46.804;134.252;2023-02-18T00:48:57;44.00;;;22.70;;
46845;SDS011;33947;46.804;134.252;2023-02-18T00:52:01;39.45;;;21.40;;
46845;SDS011;33947;46.804;134.252;2023-02-18T00:55:07;49.08;;;21.90;;
46845;SDS011;33947;46.804;134.252;2023-02-18T00:58:12;41.50;;;21.13;;
46845;SDS011;33947;46.804;134.252;2023-02-18T01:01:17;42.17;;;19.45;;
46845;SDS011;33947;46.804;134.252;2023-02-18T01:04:22;43.53;;;21.17;;
46845;SDS011;33947;46.804;134.252;2023-02-18T01:07:26;38.65;;;19.45;;
46845;SDS011;33947;46.804;134.252;2023-02-18T01:10:31;197.48;;;57.15;;
46845;SDS011;33947;46.804;134.252;2023-02-18T01:13:39;56.28;;;25.65;;
46845;SDS011;33947;46.804;134.252;2023-02-18T01:16:44;57.88;;;27.77;;
46845;SDS011;33947;46.804;134.252;2023-02-18T01:19:48;38.08;;;20.23;;
46845;SDS011;33947;46.804;134.252;2023-02-18T01:22:53;45.38;;;21.00;;
46845;SDS011;33947;46.804;134.252;2023-02-18T01:25:57;42.25;;;22.17;;
46845;SDS011;33947;46.804;134.252;2023-02-18T01:29:02;68.50;;;26.77;;
46845;SDS011;33947;46.804;134.252;2023-02-18T01:32:07;45.70;;;22.92;;
46845;SDS011;33947;46.804;134.252;2023-02-18T01:35:12;43.45;;;22.05;;
46845;SDS011;33947;46.804;134.252;2023-02-18T01:38:18;38.53;;;19.88;;
46845;SDS011;33947;46.804;134.252;2023-02-18T01:41:22;39.20;;;18.67;;
46845;SDS011;33947;46.804;134.252;2023-02-18T01:44:29;42.75;;;17.77;;
46845;SDS011;33947;46.804;134.252;2023-02-18T01:47:36;41.72;;;18.42;;
46845;SDS011;33947;46.804;134.252;2023-02-18T01:50:42;51.25;;;25.42;;
46845;SDS011;33947;46.804;134.252;2023-02-18T01:53:57;48.15;;;20.45;;
46845;SDS011;33947;46.804;134.252;2023-02-18T01:57:17;40.13;;;18.70;;
46845;SDS011;33947;46.804;134.252;2023-02-18T02:00:25;37.33;;;17.55;;
46845;SDS011;33947;46.804;134.252;2023-02-18T02:03:29;41.13;;;19.63;;
46845;SDS011;33947;46.804;134.252;2023-02-18T02:06:33;42.88;;;21.00;;
46845;SDS011;33947;46.804;134.252;2023-02-18T02:09:38;31.17;;;15.80;;
46845;SDS011;33947;46.804;134.252;2023-02-18T02:17:02;30.67;;;14.57;;
46845;SDS011;33947;46.804;134.252;2023-02-18T02:27:38;26.60;;;14.43;;
46845;SDS011;33947;46.804;134.252;2023-02-18T02:31:12;26.58;;;14.63;;
46845;SDS011;33947;46.804;134.252;2023-02-18T02:42:02;31.67;;;14.40;;
46845;SDS011;33947;46.804;134.252;2023-02-18T02:45:32;32.22;;;13.70;;
46845;SDS011;33947;46.804;134.252;2023-02-18T02:55:10;26.35;;;12.40;;
46845;SDS011;33947;46.804;134.252;2023-02-18T02:58:18;29.75;;;14.30;;
46845;SDS011;33947;46.804;134.252;2023-02-18T03:08:24;26.63;;;13.02;;
46845;SDS011;33947;46.804;134.252;2023-02-18T03:21:31;30.33;;;13.95;;
46845;SDS011;33947;46.804;134.252;2023-02-18T03:24:41;33.42;;;13.73;;
46845;SDS011;33947;46.804;134.252;2023-02-18T03:27:50;77.90;;;27.45;;
46845;SDS011;33947;46.804;134.252;2023-02-18T03:31:03;147.15;;;54.38;;
46845;SDS011;33947;46.804;134.252;2023-02-18T03:34:14;26.25;;;14.13;;
46845;SDS011;33947;46.804;134.252;2023-02-18T03:37:22;33.03;;;18.67;;
46845;SDS011;33947;46.804;134.252;2023-02-18T03:40:30;23.02;;;11.00;;
46845;SDS011;33947;46.804;134.252;2023-02-18T03:43:39;32.10;;;17.05;;
46845;SDS011;33947;46.804;134.252;2023-02-18T03:49:48;25.20;;;11.20;;
46845;SDS011;33947;46.804;134.252;2023-02-18T03:52:53;33.13;;;14.35;;
46845;SDS011;33947;46.804;134.252;2023-02-18T03:55:57;26.20;;;12.75;;
46845;SDS011;33947;46.804;134.252;2023-02-18T03:59:02;21.33;;;10.85;;
46845;SDS011;33947;46.804;134.252;2023-02-18T04:02:06;22.52;;;10.52;;
46845;SDS011;33947;46.804;134.252;2023-02-18T04:05:10;25.05;;;11.10;;
46845;SDS011;33947;46.804;134.252;2023-02-18T04:08:16;17.75;;;9.25;;
46845;SDS011;33947;46.804;134.252;2023-02-18T04:11:20;18.90;;;9.38;;
46845;SDS011;33947;46.804;134.252;2023-02-18T04:14:24;21.80;;;9.70;;
46845;SDS011;33947;46.804;134.252;2023-02-18T04:17:29;27.70;;;11.63;;
46845;SDS011;33947;46.804;134.252;2023-02-18T04:20:34;20.40;;;9.85;;
46845;SDS011;33947;46.804;134.252;2023-02-18T04:23:39;19.23;;;9.55;;
46845;SDS011;33947;46.804;134.252;2023-02-18T04:26:44;21.58;;;9.73;;
46845;SDS011;33947;46.804;134.252;2023-02-18T04:29:48;28.27;;;9.38;;
46845;SDS011;33947;46.804;134.252;2023-02-18T04:32:53;40.60;;;17.85;;
46845;SDS011;33947;46.804;134.252;2023-02-18T04:35:57;23.60;;;10.75;;
46845;SDS011;33947;46.804;134.252;2023-02-18T04:39:01;23.50;;;10.63;;
46845;SDS011;33947;46.804;134.252;2023-02-18T04:42:06;21.05;;;10.10;;
46845;SDS011;33947;46.804;134.252;2023-02-18T04:45:12;18.10;;;9.98;;
46845;SDS011;33947;46.804;134.252;2023-02-18T04:48:16;40.67;;;18.73;;
46845;SDS011;33947;46.804;134.252;2023-02-18T04:51:21;18.30;;;9.50;;
46845;SDS011;33947;46.804;134.252;2023-02-18T04:54:25;15.10;;;7.00;;
46845;SDS011;33947;46.804;134.252;2023-02-18T04:57:29;7.72;;;4.18;;
46845;SDS011;33947;46.804;134.252;2023-02-18T05:00:33;8.63;;;4.90;;
46845;SDS011;33947;46.804;134.252;2023-02-18T05:03:38;8.60;;;4.85;;
46845;SDS011;33947;46.804;134.252;2023-02-18T05:06:42;10.05;;;4.60;;
46845;SDS011;33947;46.804;134.252;2023-02-18T05:09:46;9.15;;;5.00;;
46845;SDS011;33947;46.804;134.252;2023-02-18T05:12:50;8.80;;;5.30;;
46845;SDS011;33947;46.804;134.252;2023-02-18T05:15:54;9.63;;;4.80;;
46845;SDS011;33947;46.804;134.252;2023-02-18T05:18:58;11.32;;;5.70;;
46845;SDS011;33947;46.804;134.252;2023-02-18T05:22:03;12.23;;;6.20;;
46845;SDS011;33947;46.804;134.252;2023-02-18T05:25:08;13.18;;;6.05;;
46845;SDS011;33947;46.804;134.252;2023-02-18T05:28:13;17.50;;;9.02;;
46845;SDS011;33947;46.804;134.252;2023-02-18T05:31:17;12.85;;;6.40;;
46845;SDS011;33947;46.804;134.252;2023-02-18T05:34:23;15.18;;;6.63;;
46845;SDS011;33947;46.804;134.252;2023-02-18T05:37:29;19.50;;;7.50;;
46845;SDS011;33947;46.804;134.252;2023-02-18T05:40:34;11.07;;;7.00;;
46845;SDS011;33947;46.804;134.252;2023-02-18T05:43:39;23.52;;;14.85;;
46845;SDS011;33947;46.804;134.252;2023-02-18T05:47:03;16.52;;;9.35;;
46845;SDS011;33947;46.804;134.252;2023-02-18T05:50:13;13.63;;;6.80;;
46845;SDS011;33947;46.804;134.252;2023-02-18T05:53:17;15.98;;;7.72;;
46845;SDS011;33947;46.804;134.252;2023-02-18T05:56:22;14.50;;;8.07;;
46845;SDS011;33947;46.804;134.252;2023-02-18T05:59:26;12.93;;;8.18;;
46845;SDS011;33947;46.804;134.252;2023-02-18T06:02:31;17.10;;;8.88;;
46845;SDS011;33947;46.804;134.252;2023-02-18T06:05:36;19.48;;;9.57;;
46845;SDS011;33947;46.804;134.252;2023-02-18T06:08:40;14.75;;;8.65;;
46845;SDS011;33947;46.804;134.252;2023-02-18T06:11:45;17.02;;;8.90;;
46845;SDS011;33947;46.804;134.252;2023-02-18T06:14:49;17.05;;;8.40;;
46845;SDS011;33947;46.804;134.252;2023-02-18T06:17:53;21.23;;;9.13;;
46845;SDS011;33947;46.804;134.252;2023-02-18T06:20:58;15.68;;;9.20;;
46845;SDS011;33947;46.804;134.252;2023-02-18T06:24:02;22.33;;;9.93;;
46845;SDS011;33947;46.804;134.252;2023-02-18T06:27:06;20.88;;;10.25;;
46845;SDS011;33947;46.804;134.252;2023-02-18T06:30:11;41.88;;;18.38;;
46845;SDS011;33947;46.804;134.252;2023-02-18T06:33:16;15.00;;;7.57;;
46845;SDS011;33947;46.804;134.252;2023-02-18T06:36:20;36.30;;;17.13;;
46845;SDS011;33947;46.804;134.252;2023-02-18T06:39:24;15.38;;;7.22;;
46845;SDS011;33947;46.804;134.252;2023-02-18T06:42:29;21.90;;;10.10;;
46845;SDS011;33947;46.804;134.252;2023-02-18T06:45:33;14.80;;;7.88;;
46845;SDS011;33947;46.804;134.252;2023-02-18T06:48:37;15.57;;;8.70;;
46845;SDS011;33947;46.804;134.252;2023-02-18T06:51:42;16.58;;;7.50;;
46845;SDS011;33947;46.804;134.252;2023-02-18T06:54:46;16.27;;;8.30;;
46845;SDS011;33947;46.804;134.252;2023-02-18T06:57:51;16.27;;;8.18;;
46845;SDS011;33947;46.804;134.252;2023-02-18T07:00:58;16.58;;;8.05;;
46845;SDS011;33947;46.804;134.252;2023-02-18T07:04:03;21.42;;;8.35;;
46845;SDS011;33947;46.804;134.252;2023-02-18T07:07:07;72.18;;;20.10;;
46845;SDS011;33947;46.804;134.252;2023-02-18T07:10:11;47.20;;;16.48;;
46845;SDS011;33947;46.804;134.252;2023-02-18T07:13:16;16.17;;;8.38;;
46845;SDS011;33947;46.804;134.252;2023-02-18T07:16:20;109.93;;;49.03;;
46845;SDS011;33947;46.804;134.252;2023-02-18T07:19:24;25.42;;;12.23;;
46845;SDS011;33947;46.804;134.252;2023-02-18T07:22:28;160.60;;;36.63;;
46845;SDS011;33947;46.804;134.252;2023-02-18T07:25:33;21.60;;;9.93;;
46845;SDS011;33947;46.804;134.252;2023-02-18T07:28:37;107.78;;;34.78;;
46845;SDS011;33947;46.804;134.252;2023-02-18T07:31:42;24.98;;;11.93;;
46845;SDS011;33947;46.804;134.252;2023-02-18T07:34:47;17.50;;;8.68;;
46845;SDS011;33947;46.804;134.252;2023-02-18T07:37:51;27.30;;;9.60;;
46845;SDS011;33947;46.804;134.252;2023-02-18T07:40:56;27.23;;;10.15;;
46845;SDS011;33947;46.804;134.252;2023-02-18T07:44:01;21.15;;;9.27;;
46845;SDS011;33947;46.804;134.252;2023-02-18T07:47:06;18.67;;;8.93;;
46845;SDS011;33947;46.804;134.252;2023-02-18T07:50:14;21.85;;;10.48;;
46845;SDS011;33947;46.804;134.252;2023-02-18T07:53:18;36.38;;;13.93;;
46845;SDS011;33947;46.804;134.252;2023-02-18T07:56:23;130.38;;;30.55;;
46845;SDS011;33947;46.804;134.252;2023-02-18T07:59:27;23.88;;;12.95;;
46845;SDS011;33947;46.804;134.252;2023-02-18T08:02:32;43.28;;;16.75;;
46845;SDS011;33947;46.804;134.252;2023-02-18T08:05:36;62.22;;;22.38;;
46845;SDS011;33947;46.804;134.252;2023-02-18T08:08:40;33.03;;;14.38;;
46845;SDS011;33947;46.804;134.252;2023-02-18T08:11:45;37.58;;;16.38;;
46845;SDS011;33947;46.804;134.252;2023-02-18T08:14:49;31.50;;;13.65;;
46845;SDS011;33947;46.804;134.252;2023-02-18T08:17:53;44.05;;;17.98;;
46845;SDS011;33947;46.804;134.252;2023-02-18T08:20:57;40.33;;;17.10;;
46845;SDS011;33947;46.804;134.252;2023-02-18T08:24:02;43.60;;;18.90;;
46845;SDS011;33947;46.804;134.252;2023-02-18T08:27:06;36.25;;;16.63;;
46845;SDS011;33947;46.804;134.252;2023-02-18T08:30:11;45.75;;;19.20;;
46845;SDS011;33947;46.804;134.252;2023-02-18T08:33:16;122.63;;;48.85;;
46845;SDS011;33947;46.804;134.252;2023-02-18T08:36:21;188.40;;;68.82;;
46845;SDS011;33947;46.804;134.252;2023-02-18T08:39:26;35.17;;;14.88;;
46845;SDS011;33947;46.804;134.252;2023-02-18T08:42:30;46.80;;;17.92;;
46845;SDS011;33947;46.804;134.252;2023-02-18T08:45:38;43.28;;;16.20;;
46845;SDS011;33947;46.804;134.252;2023-02-18T08:48:43;39.63;;;16.10;;
46845;SDS011;33947;46.804;134.252;2023-02-18T08:51:53;37.08;;;15.00;;
46845;SDS011;33947;46.804;134.252;2023-02-18T08:54:58;34.50;;;13.98;;
46845;SDS011;33947;46.804;134.252;2023-02-18T08:58:04;21.90;;;11.60;;
46845;SDS011;33947;46.804;134.252;2023-02-18T09:01:10;47.20;;;15.75;;
46845;SDS011;33947;46.804;134.252;2023-02-18T09:04:17;37.47;;;15.50;;
46845;SDS011;33947;46.804;134.252;2023-02-18T09:07:27;38.55;;;14.40;;
46845;SDS011;33947;46.804;134.252;2023-02-18T09:10:31;36.92;;;14.77;;
46845;SDS011;33947;46.804;134.252;2023-02-18T09:13:35;63.33;;;18.65;;
46845;SDS011;33947;46.804;134.252;2023-02-18T09:16:40;54.95;;;18.05;;
46845;SDS011;33947;46.804;134.252;2023-02-18T09:19:45;30.88;;;13.38;;
46845;SDS011;33947;46.804;134.252;2023-02-18T09:22:49;23.58;;;11.57;;
46845;SDS011;33947;46.804;134.252;2023-02-18T09:25:58;20.13;;;10.45;;
46845;SDS011;33947;46.804;134.252;2023-02-18T09:29:03;22.02;;;10.40;;
46845;SDS011;33947;46.804;134.252;2023-02-18T09:32:07;21.88;;;9.30;;
46845;SDS011;33947;46.804;134.252;2023-02-18T09:35:26;22.95;;;10.95;;
46845;SDS011;33947;46.804;134.252;2023-02-18T09:38:34;54.38;;;19.60;;
46845;SDS011;33947;46.804;134.252;2023-02-18T09:44:59;117.95;;;32.22;;
46845;SDS011;33947;46.804;134.252;2023-02-18T09:48:05;54.53;;;19.90;;
46845;SDS011;33947;46.804;134.252;2023-02-18T09:51:13;29.63;;;13.95;;
46845;SDS011;33947;46.804;134.252;2023-02-18T09:54:18;21.13;;;10.10;;
46845;SDS011;33947;46.804;134.252;2023-02-18T09:57:40;20.65;;;10.30;;
46845;SDS011;33947;46.804;134.252;2023-02-18T10:00:52;20.33;;;8.85;;
46845;SDS011;33947;46.804;134.252;2023-02-18T10:04:16;19.10;;;8.68;;
46845;SDS011;33947;46.804;134.252;2023-02-18T10:07:30;24.70;;;9.77;;
46845;SDS011;33947;46.804;134.252;2023-02-18T10:10:40;22.45;;;10.10;;
46845;SDS011;33947;46.804;134.252;2023-02-18T10:13:47;37.08;;;15.25;;
46845;SDS011;33947;46.804;134.252;2023-02-18T10:16:53;37.83;;;16.17;;
46845;SDS011;33947;46.804;134.252;2023-02-18T10:19:57;40.72;;;19.83;;
46845;SDS011;33947;46.804;134.252;2023-02-18T10:23:09;56.47;;;31.10;;
46845;SDS011;33947;46.804;134.252;2023-02-18T10:26:15;50.53;;;23.27;;
46845;SDS011;33947;46.804;134.252;2023-02-18T10:29:22;52.08;;;21.77;;
46845;SDS011;33947;46.804;134.252;2023-02-18T10:35:55;59.13;;;27.00;;
46845;SDS011;33947;46.804;134.252;2023-02-18T10:42:41;143.38;;;50.40;;
46845;SDS011;33947;46.804;134.252;2023-02-18T10:52:58;97.60;;;38.42;;
46845;SDS011;33947;46.804;134.252;2023-02-18T10:56:06;150.85;;;50.33;;
46845;SDS011;33947;46.804;134.252;2023-02-18T10:59:18;145.35;;;46.92;;
46845;SDS011;33947;46.804;134.252;2023-02-18T11:02:28;120.10;;;43.38;;
46845;SDS011;33947;46.804;134.252;2023-02-18T11:05:35;183.07;;;53.35;;
46845;SDS011;33947;46.804;134.252;2023-02-18T11:08:41;171.77;;;51.33;;
46845;SDS011;33947;46.804;134.252;2023-02-18T11:11:48;202.10;;;62.53;;
46845;SDS011;33947;46.804;134.252;2023-02-18T11:18:14;412.83;;;120.45;;
46845;SDS011;33947;46.804;134.252;2023-02-18T11:21:40;297.38;;;93.25;;
46845;SDS011;33947;46.804;134.252;2023-02-18T11:24:45;254.95;;;84.40;;
46845;SDS011;33947;46.804;134.252;2023-02-18T11:27:56;254.13;;;81.53;;
46845;SDS011;33947;46.804;134.252;2023-02-18T11:31:06;243.30;;;78.03;;
46845;SDS011;33947;46.804;134.252;2023-02-18T11:34:15;262.92;;;82.82;;
46845;SDS011;33947;46.804;134.252;2023-02-18T11:37:24;239.45;;;81.55;;
46845;SDS011;33947;46.804;134.252;2023-02-18T11:40:32;313.83;;;97.55;;
46845;SDS011;33947;46.804;134.252;2023-02-18T11:43:41;291.65;;;89.60;;
46845;SDS011;33947;46.804;134.252;2023-02-18T11:46:56;315.42;;;95.60;;
46845;SDS011;33947;46.804;134.252;2023-02-18T11:50:31;266.63;;;85.10;;
46845;SDS011;33947;46.804;134.252;2023-02-18T11:53:36;255.75;;;82.47;;
46845;SDS011;33947;46.804;134.252;2023-02-18T11:56:41;255.05;;;82.15;;
46845;SDS011;33947;46.804;134.252;2023-02-18T12:00:03;217.55;;;71.75;;
46845;SDS011;33947;46.804;134.252;2023-02-18T12:09:49;309.38;;;87.47;;
46845;SDS011;33947;46.804;134.252;2023-02-18T12:13:06;296.95;;;96.32;;
46845;SDS011;33947;46.804;134.252;2023-02-18T12:26:30;276.95;;;90.90;;
46845;SDS011;33947;46.804;134.252;2023-02-18T12:33:39;277.60;;;92.75;;
46845;SDS011;33947;46.804;134.252;2023-02-18T12:47:50;191.45;;;60.33;;
46845;SDS011;33947;46.804;134.252;2023-02-18T12:51:13;124.97;;;43.95;;
46845;SDS011;33947;46.804;134.252;2023-02-18T13:08:48;118.97;;;43.53;;
46845;SDS011;33947;46.804;134.252;2023-02-18T13:12:03;151.27;;;50.08;;
46845;SDS011;33947;46.804;134.252;2023-02-18T13:15:14;109.68;;;37.42;;
46845;SDS011;33947;46.804;134.252;2023-02-18T13:18:33;71.95;;;28.88;;
46845;SDS011;33947;46.804;134.252;2023-02-18T13:21:42;55.45;;;23.60;;
46845;SDS011;33947;46.804;134.252;2023-02-18T13:24:48;69.65;;;26.33;;
46845;SDS011;33947;46.804;134.252;2023-02-18T13:28:39;102.22;;;35.58;;
46845;SDS011;33947;46.804;134.252;2023-02-18T13:38:21;62.38;;;25.10;;
46845;SDS011;33947;46.804;134.252;2023-02-18T13:41:35;60.03;;;26.52;;
46845;SDS011;33947;46.804;134.252;2023-02-18T13:47:59;65.53;;;24.38;;
46845;SDS011;33947;46.804;134.252;2023-02-18T13:54:15;50.42;;;19.15;;
46845;SDS011;33947;46.804;134.252;2023-02-18T13:57:27;420.63;;;122.90;;
46845;SDS011;33947;46.804;134.252;2023-02-18T14:00:35;337.63;;;95.80;;
46845;SDS011;33947;46.804;134.252;2023-02-18T14:13:41;91.93;;;36.92;;
46845;SDS011;33947;46.804;134.252;2023-02-18T14:23:41;129.60;;;37.38;;
46845;SDS011;33947;46.804;134.252;2023-02-18T14:26:47;182.23;;;56.90;;
46845;SDS011;33947;46.804;134.252;2023-02-18T14:29:52;157.20;;;46.30;;
46845;SDS011;33947;46.804;134.252;2023-02-18T14:32:58;147.25;;;44.22;;
46845;SDS011;33947;46.804;134.252;2023-02-18T14:52:46;68.60;;;25.38;;
46845;SDS011;33947;46.804;134.252;2023-02-18T14:56:03;72.10;;;23.88;;
46845;SDS011;33947;46.804;134.252;2023-02-18T14:59:10;83.80;;;28.90;;
46845;SDS011;33947;46.804;134.252;2023-02-18T15:02:52;102.50;;;29.70;;
46845;SDS011;33947;46.804;134.252;2023-02-18T15:05:57;127.15;;;39.35;;
46845;SDS011;33947;46.804;134.252;2023-02-18T15:09:22;114.63;;;33.72;;
46845;SDS011;33947;46.804;134.252;2023-02-18T15:12:26;115.00;;;35.40;;
46845;SDS011;33947;46.804;134.252;2023-02-18T15:15:31;126.07;;;38.65;;
46845;SDS011;33947;46.804;134.252;2023-02-18T15:18:48;98.30;;;33.35;;
46845;SDS011;33947;46.804;134.252;2023-02-18T15:21:59;117.35;;;33.67;;
46845;SDS011;33947;46.804;134.252;2023-02-18T15:25:05;103.70;;;35.90;;
46845;SDS011;33947;46.804;134.252;2023-02-18T15:31:37;122.32;;;42.83;;
46845;SDS011;33947;46.804;134.252;2023-02-18T15:34:42;128.65;;;40.50;;
46845;SDS011;33947;46.804;134.252;2023-02-18T15:37:51;138.45;;;40.15;;
46845;SDS011;33947;46.804;134.252;2023-02-18T15:40:57;168.18;;;47.75;;
46845;SDS011;33947;46.804;134.252;2023-02-18T15:44:03;127.30;;;37.00;;
46845;SDS011;33947;46.804;134.252;2023-02-18T15:47:10;135.40;;;38.10;;
46845;SDS011;33947;46.804;134.252;2023-02-18T15:50:17;89.78;;;34.13;;
46845;SDS011;33947;46.804;134.252;2023-02-18T15:53:25;92.43;;;31.90;;
46845;SDS011;33947;46.804;134.252;2023-02-18T15:56:33;103.30;;;33.10;;
46845;SDS011;33947;46.804;134.252;2023-02-18T15:59:45;108.28;;;33.30;;
46845;SDS011;33947;46.804;134.252;2023-02-18T16:03:43;105.80;;;33.20;;
46845;SDS011;33947;46.804;134.252;2023-02-18T16:09:34;91.97;;;28.95;;
46845;SDS011;33947;46.804;134.252;2023-02-18T16:12:44;83.43;;;28.98;;
46845;SDS011;33947;46.804;134.252;2023-02-18T16:15:52;94.45;;;30.00;;
46845;SDS011;33947;46.804;134.252;2023-02-18T16:18:57;87.35;;;30.10;;
46845;SDS011;33947;46.804;134.252;2023-02-18T16:22:05;106.50;;;32.47;;
46845;SDS011;33947;46.804;134.252;2023-02-18T16:28:23;105.78;;;34.45;;
46845;SDS011;33947;46.804;134.252;2023-02-18T16:31:32;113.60;;;34.72;;
46845;SDS011;33947;46.804;134.252;2023-02-18T16:34:36;133.65;;;42.15;;
46845;SDS011;33947;46.804;134.252;2023-02-18T16:37:41;109.43;;;35.10;;
46845;SDS011;33947;46.804;134.252;2023-02-18T16:40:48;100.97;;;34.75;;
46845;SDS011;33947;46.804;134.252;2023-02-18T16:43:55;102.35;;;34.58;;
46845;SDS011;33947;46.804;134.252;2023-02-18T16:47:00;103.85;;;36.20;;
46845;SDS011;33947;46.804;134.252;2023-02-18T16:50:05;111.03;;;35.83;;
46845;SDS011;33947;46.804;134.252;2023-02-18T16:53:16;112.50;;;35.20;;
46845;SDS011;33947;46.804;134.252;2023-02-18T16:56:26;133.73;;;36.85;;
46845;SDS011;33947;46.804;134.252;2023-02-18T16:59:34;162.32;;;45.63;;
46845;SDS011;33947;46.804;134.252;2023-02-18T17:02:39;138.03;;;44.53;;
46845;SDS011;33947;46.804;134.252;2023-02-18T17:05:43;130.38;;;41.83;;
46845;SDS011;33947;46.804;134.252;2023-02-18T17:08:48;136.02;;;41.67;;
46845;SDS011;33947;46.804;134.252;2023-02-18T17:11:53;169.85;;;50.97;;
46845;SDS011;33947;46.804;134.252;2023-02-18T17:15:04;136.88;;;45.83;;
46845;SDS011;33947;46.804;134.252;2023-02-18T17:18:17;182.63;;;52.47;;
46845;SDS011;33947;46.804;134.252;2023-02-18T17:21:23;140.77;;;41.97;;
46845;SDS011;33947;46.804;134.252;2023-02-18T17:24:28;141.05;;;43.83;;
46845;SDS011;33947;46.804;134.252;2023-02-18T17:27:33;133.52;;;44.53;;
46845;SDS011;33947;46.804;134.252;2023-02-18T17:30:42;173.52;;;53.00;;
46845;SDS011;33947;46.804;134.252;2023-02-18T17:33:48;82.20;;;28.30;;
46845;SDS011;33947;46.804;134.252;2023-02-18T17:36:57;88.53;;;29.52;;
46845;SDS011;33947;46.804;134.252;2023-02-18T17:40:02;75.07;;;29.20;;
46845;SDS011;33947;46.804;134.252;2023-02-18T17:43:12;63.17;;;24.95;;
46845;SDS011;33947;46.804;134.252;2023-02-18T17:46:18;88.75;;;31.88;;
46845;SDS011;33947;46.804;134.252;2023-02-18T17:49:23;69.50;;;25.17;;
46845;SDS011;33947;46.804;134.252;2023-02-18T17:52:30;110.47;;;35.25;;
46845;SDS011;33947;46.804;134.252;2023-02-18T17:55:37;102.57;;;35.83;;
46845;SDS011;33947;46.804;134.252;2023-02-18T17:58:45;92.53;;;32.45;;
46845;SDS011;33947;46.804;134.252;2023-02-18T18:01:50;97.25;;;29.52;;
46845;SDS011;33947;46.804;134.252;2023-02-18T18:04:55;104.33;;;32.43;;
46845;SDS011;33947;46.804;134.252;2023-02-18T18:08:03;89.40;;;27.98;;
46845;SDS011;33947;46.804;134.252;2023-02-18T18:11:12;65.15;;;24.98;;
46845;SDS011;33947;46.804;134.252;2023-02-18T18:14:19;81.50;;;23.95;;
46845;SDS011;33947;46.804;134.252;2023-02-18T18:17:24;68.43;;;23.70;;
46845;SDS011;33947;46.804;134.252;2023-02-18T18:20:29;66.55;;;24.92;;
46845;SDS011;33947;46.804;134.252;2023-02-18T18:23:35;88.65;;;25.60;;
46845;SDS011;33947;46.804;134.252;2023-02-18T18:26:39;86.68;;;28.73;;
46845;SDS011;33947;46.804;134.252;2023-02-18T18:29:44;93.80;;;30.17;;
46845;SDS011;33947;46.804;134.252;2023-02-18T18:32:48;92.63;;;29.37;;
46845;SDS011;33947;46.804;134.252;2023-02-18T18:35:54;97.03;;;31.30;;
46845;SDS011;33947;46.804;134.252;2023-02-18T18:39:00;120.68;;;43.60;;
46845;SDS011;33947;46.804;134.252;2023-02-18T18:42:04;98.50;;;34.72;;
46845;SDS011;33947;46.804;134.252;2023-02-18T18:45:14;149.75;;;48.42;;
46845;SDS011;33947;46.804;134.252;2023-02-18T18:48:27;221.05;;;73.85;;
46845;SDS011;33947;46.804;134.252;2023-02-18T18:51:32;315.42;;;97.82;;
46845;SDS011;33947;46.804;134.252;2023-02-18T18:54:36;182.45;;;58.95;;
46845;SDS011;33947;46.804;134.252;2023-02-18T18:57:43;91.05;;;31.80;;
46845;SDS011;33947;46.804;134.252;2023-02-18T19:00:49;265.83;;;78.72;;
46845;SDS011;33947;46.804;134.252;2023-02-18T19:03:58;180.85;;;56.30;;
46845;SDS011;33947;46.804;134.252;2023-02-18T19:07:03;205.10;;;61.83;;
46845;SDS011;33947;46.804;134.252;2023-02-18T19:10:07;239.98;;;75.68;;
46845;SDS011;33947;46.804;134.252;2023-02-18T19:13:12;194.05;;;58.17;;
46845;SDS011;33947;46.804;134.252;2023-02-18T19:16:26;153.48;;;46.38;;
46845;SDS011;33947;46.804;134.252;2023-02-18T19:19:41;165.68;;;49.30;;
46845;SDS011;33947;46.804;134.252;2023-02-18T19:22:54;937.45;;;319.02;;
46845;SDS011;33947;46.804;134.252;2023-02-18T19:25:59;445.85;;;120.40;;
46845;SDS011;33947;46.804;134.252;2023-02-18T19:29:03;232.90;;;63.25;;
46845;SDS011;33947;46.804;134.252;2023-02-18T19:32:08;262.23;;;73.53;;
46845;SDS011;33947;46.804;134.252;2023-02-18T19:35:12;209.10;;;57.95;;
46845;SDS011;33947;46.804;134.252;2023-02-18T19:38:17;64.75;;;21.95;;
46845;SDS011;33947;46.804;134.252;2023-02-18T19:41:21;80.85;;;23.38;;
46845;SDS011;33947;46.804;134.252;2023-02-18T19:44:25;60.05;;;20.95;;
46845;SDS011;33947;46.804;134.252;2023-02-18T19:47:34;87.40;;;27.30;;
46845;SDS011;33947;46.804;134.252;2023-02-18T19:50:38;58.97;;;19.83;;
46845;SDS011;33947;46.804;134.252;2023-02-18T19:53:47;46.50;;;17.83;;
46845;SDS011;33947;46.804;134.252;2023-02-18T19:56:51;76.43;;;23.30;;
46845;SDS011;33947;46.804;134.252;2023-02-18T19:59:55;67.88;;;25.58;;
46845;SDS011;33947;46.804;134.252;2023-02-18T20:02:59;51.53;;;18.33;;
46845;SDS011;33947;46.804;134.252;2023-02-18T20:06:04;81.90;;;28.23;;
46845;SDS011;33947;46.804;134.252;2023-02-18T20:09:08;63.88;;;27.55;;
46845;SDS011;33947;46.804;134.252;2023-02-18T20:12:13;54.15;;;22.98;;
46845;SDS011;33947;46.804;134.252;2023-02-18T20:15:18;44.97;;;21.20;;
46845;SDS011;33947;46.804;134.252;2023-02-18T20:18:22;53.45;;;22.23;;
46845;SDS011;33947;46.804;134.252;2023-02-18T20:21:27;110.45;;;29.63;;
46845;SDS011;33947;46.804;134.252;2023-02-18T20:24:32;60.67;;;23.63;;
46845;SDS011;33947;46.804;134.252;2023-02-18T20:27:37;53.65;;;21.23;;
46845;SDS011;33947;46.804;134.252;2023-02-18T20:31:07;45.03;;;20.60;;
46845;SDS011;33947;46.804;134.252;2023-02-18T20:34:13;52.92;;;24.95;;